createdAt,value
2017-12-15T00:01:46.140Z,8.50
2017-12-15T00:04:13.696Z,8.50
2017-12-15T00:06:41.220Z,8.50
2017-12-15T00:09:08.773Z,8.50
2017-12-15T00:11:36.329Z,8.50
2017-12-15T00:14:03.831Z,8.50
2017-12-15T00:16:31.373Z,8.40
2017-12-15T00:18:58.891Z,8.40
2017-12-15T00:21:26.436Z,8.40
2017-12-15T00:23:53.973Z,8.40
2017-12-15T00:26:21.479Z,8.40
2017-12-15T00:28:49.029Z,8.40
2017-12-15T00:31:16.577Z,8.40
2017-12-15T00:33:44.097Z,8.40
2017-12-15T00:36:11.641Z,8.40
2017-12-15T00:38:39.152Z,8.40
2017-12-15T00:41:06.720Z,8.40
2017-12-15T00:43:34.241Z,8.50
2017-12-15T00:46:01.751Z,8.40
2017-12-15T00:48:29.292Z,8.50
2017-12-15T00:50:57.570Z,8.50
2017-12-15T00:53:26.133Z,8.50
2017-12-15T00:55:53.649Z,8.50
2017-12-15T00:58:21.184Z,8.50
2017-12-15T01:00:48.698Z,8.50
2017-12-15T01:03:16.237Z,8.50
2017-12-15T01:05:43.839Z,8.60
2017-12-15T01:08:12.132Z,8.50
2017-12-15T01:10:39.649Z,8.50
2017-12-15T01:13:07.397Z,8.60
2017-12-15T01:15:34.933Z,8.60
2017-12-15T01:18:02.492Z,8.60
2017-12-15T01:20:30.008Z,8.60
2017-12-15T01:22:57.521Z,8.60
2017-12-15T01:25:25.123Z,8.60
2017-12-15T01:27:52.645Z,8.60
2017-12-15T01:30:20.189Z,8.60
2017-12-15T01:32:47.694Z,8.70
2017-12-15T01:35:15.261Z,8.70
2017-12-15T01:37:42.769Z,8.70
2017-12-15T01:40:10.312Z,8.70
2017-12-15T01:42:37.865Z,8.70
2017-12-15T01:45:05.417Z,8.80
2017-12-15T01:47:32.921Z,8.80
2017-12-15T01:50:00.460Z,8.80
2017-12-15T01:52:27.992Z,8.70
2017-12-15T01:54:56.277Z,8.70
2017-12-15T01:57:23.833Z,8.60
2017-12-15T02:02:33.932Z,8.60
2017-12-15T02:05:01.470Z,8.60
2017-12-15T02:07:29.054Z,8.60
2017-12-15T02:09:56.563Z,8.60
2017-12-15T02:12:24.108Z,8.60
2017-12-15T02:14:51.675Z,8.60
2017-12-15T02:17:19.213Z,8.50
2017-12-15T02:19:46.727Z,8.40
2017-12-15T02:22:14.308Z,8.30
2017-12-15T02:24:41.833Z,8.20
2017-12-15T02:27:10.170Z,8.10
2017-12-15T02:29:37.725Z,8.10
2017-12-15T02:32:05.236Z,8.00
2017-12-15T02:34:32.793Z,8.00
2017-12-15T02:37:00.340Z,8.00
2017-12-15T02:39:28.626Z,8.00
2017-12-15T02:41:56.190Z,8.00
2017-12-15T02:44:24.586Z,7.90
2017-12-15T02:46:52.114Z,7.90
2017-12-15T02:49:21.413Z,7.80
2017-12-15T02:51:48.976Z,7.80
2017-12-15T02:54:16.540Z,7.80
2017-12-15T02:56:44.870Z,7.80
2017-12-15T02:59:12.378Z,7.80
2017-12-15T03:01:39.930Z,7.50
2017-12-15T03:04:07.690Z,7.30
2017-12-15T03:06:35.249Z,7.00
2017-12-15T03:09:02.797Z,6.80
2017-12-15T03:11:30.342Z,6.70
2017-12-15T03:13:57.868Z,6.70
2017-12-15T03:16:25.413Z,6.70
2017-12-15T03:18:52.981Z,6.70
2017-12-15T03:21:20.485Z,6.70
2017-12-15T03:23:47.988Z,6.60
2017-12-15T03:26:15.528Z,6.60
2017-12-15T03:28:43.088Z,6.60
2017-12-15T03:31:11.366Z,6.70
2017-12-15T03:33:38.904Z,6.60
2017-12-15T03:36:06.412Z,6.70
2017-12-15T03:38:33.952Z,6.80
2017-12-15T03:41:01.476Z,6.80
2017-12-15T03:43:28.991Z,6.80
2017-12-15T03:45:56.534Z,6.70
2017-12-15T03:48:24.812Z,6.80
2017-12-15T03:50:52.649Z,6.80
2017-12-15T03:53:20.162Z,6.80
2017-12-15T03:55:47.699Z,6.80
2017-12-15T03:58:15.311Z,6.80
2017-12-15T04:00:42.850Z,6.90
2017-12-15T04:03:10.369Z,6.90
2017-12-15T04:05:37.925Z,6.90
2017-12-15T04:08:05.444Z,6.90
2017-12-15T04:10:32.956Z,6.90
2017-12-15T04:13:00.502Z,6.90
2017-12-15T04:15:28.020Z,6.90
2017-12-15T04:17:56.338Z,6.90
2017-12-15T04:20:23.853Z,6.90
2017-12-15T04:22:51.406Z,6.90
2017-12-15T04:25:18.916Z,6.90
2017-12-15T04:27:47.212Z,6.60
2017-12-15T04:30:14.865Z,6.60
2017-12-15T04:32:42.409Z,6.40
2017-12-15T04:35:09.951Z,6.30
2017-12-15T04:37:37.582Z,6.30
2017-12-15T04:40:05.132Z,6.20
2017-12-15T04:42:32.644Z,6.20
2017-12-15T04:45:00.956Z,6.10
2017-12-15T04:47:28.500Z,6.10
2017-12-15T04:49:56.013Z,6.10
2017-12-15T04:52:23.572Z,6.20
2017-12-15T04:54:51.077Z,6.20
2017-12-15T04:57:18.579Z,6.20
2017-12-15T04:59:46.128Z,6.20
2017-12-15T05:02:14.426Z,6.10
2017-12-15T05:04:41.959Z,6.10
2017-12-15T05:07:09.512Z,6.00
2017-12-15T05:09:37.024Z,5.90
2017-12-15T05:12:04.567Z,5.90
2017-12-15T05:14:32.084Z,5.90
2017-12-15T05:16:59.628Z,6.00
2017-12-15T05:19:27.185Z,5.90
2017-12-15T05:21:54.706Z,5.90
2017-12-15T05:24:22.220Z,5.90
2017-12-15T05:26:49.769Z,5.90
2017-12-15T05:29:17.284Z,6.00
2017-12-15T05:31:44.852Z,6.00
2017-12-15T05:34:12.376Z,6.00
2017-12-15T05:36:39.924Z,6.00
2017-12-15T05:39:07.429Z,5.90
2017-12-15T05:41:35.042Z,6.00
2017-12-15T05:44:02.545Z,6.00
2017-12-15T05:46:30.112Z,6.00
2017-12-15T05:48:57.659Z,6.00
2017-12-15T05:51:25.188Z,6.00
2017-12-15T05:53:52.785Z,6.00
2017-12-15T05:56:20.298Z,6.00
2017-12-15T05:58:47.841Z,6.10
2017-12-15T06:01:15.428Z,6.10
2017-12-15T06:03:42.947Z,6.10
2017-12-15T06:06:10.509Z,6.20
2017-12-15T06:08:38.796Z,6.20
2017-12-15T06:11:06.352Z,6.20
2017-12-15T06:13:33.897Z,6.20
2017-12-15T06:16:02.246Z,6.30
2017-12-15T06:18:29.793Z,6.20
2017-12-15T06:20:57.336Z,6.30
2017-12-15T06:23:24.840Z,6.40
2017-12-15T06:25:52.356Z,6.50
2017-12-15T06:28:19.921Z,6.40
2017-12-15T06:30:47.486Z,6.50
2017-12-15T06:33:15.001Z,6.40
2017-12-15T06:35:43.293Z,6.50
2017-12-15T06:40:52.567Z,6.50
2017-12-15T06:43:20.107Z,6.50
2017-12-15T06:45:47.660Z,6.60
2017-12-15T06:48:15.324Z,6.60
2017-12-15T06:50:42.862Z,6.50
2017-12-15T06:53:11.228Z,6.60
2017-12-15T06:55:39.524Z,6.50
2017-12-15T06:58:07.070Z,6.50
2017-12-15T07:00:35.372Z,6.60
2017-12-15T07:03:02.976Z,6.60
2017-12-15T07:05:30.521Z,6.60
2017-12-15T07:07:58.076Z,6.60
2017-12-15T07:10:25.827Z,6.50
2017-12-15T07:12:53.407Z,6.60
2017-12-15T07:15:20.925Z,6.60
2017-12-15T07:17:48.457Z,6.50
2017-12-15T07:20:16.013Z,6.70
2017-12-15T07:22:43.545Z,6.60
2017-12-15T07:25:11.225Z,6.50
2017-12-15T07:27:38.795Z,6.60
2017-12-15T07:30:06.363Z,6.60
2017-12-15T07:32:33.884Z,6.60
2017-12-15T07:35:01.399Z,6.60
2017-12-15T07:37:29.043Z,6.50
2017-12-15T07:39:56.560Z,6.50
2017-12-15T07:42:24.088Z,6.50
2017-12-15T07:44:51.628Z,6.40
2017-12-15T07:47:19.189Z,6.50
2017-12-15T07:49:46.776Z,6.60
2017-12-15T07:52:14.500Z,6.60
2017-12-15T07:54:42.072Z,6.60
2017-12-15T07:57:09.657Z,6.60
2017-12-15T07:59:37.165Z,6.70
2017-12-15T08:02:04.726Z,6.80
2017-12-15T08:04:32.275Z,6.70
2017-12-15T08:06:59.795Z,6.80
2017-12-15T08:09:27.582Z,6.80
2017-12-15T08:11:55.109Z,6.80
2017-12-15T08:14:22.888Z,6.90
2017-12-15T08:16:50.420Z,7.00
2017-12-15T08:19:17.973Z,7.00
2017-12-15T08:21:45.836Z,7.00
2017-12-15T08:24:14.273Z,7.10
2017-12-15T08:26:41.832Z,7.10
2017-12-15T08:29:09.426Z,7.10
2017-12-15T08:31:36.978Z,7.10
2017-12-15T08:34:04.493Z,7.00
2017-12-15T08:36:32.040Z,7.10
2017-12-15T08:38:59.624Z,7.10
2017-12-15T08:41:27.223Z,7.20
2017-12-15T08:43:54.752Z,7.20
2017-12-15T08:46:22.343Z,7.20
2017-12-15T08:48:49.905Z,7.30
2017-12-15T08:51:17.461Z,7.30
2017-12-15T08:53:45.006Z,7.30
2017-12-15T08:56:12.567Z,7.40
2017-12-15T08:58:40.129Z,7.50
2017-12-15T09:01:07.657Z,7.50
2017-12-15T09:03:35.225Z,7.40
2017-12-15T09:06:02.768Z,7.30
2017-12-15T09:08:30.288Z,7.30
2017-12-15T09:10:58.630Z,7.30
2017-12-15T09:13:26.169Z,7.30
2017-12-15T09:15:53.734Z,7.40
2017-12-15T09:18:21.245Z,7.50
2017-12-15T09:20:48.768Z,7.50
2017-12-15T09:23:16.328Z,7.60
2017-12-15T09:25:44.172Z,7.60
2017-12-15T09:28:11.770Z,7.70
2017-12-15T09:30:39.287Z,7.70
2017-12-15T09:33:07.021Z,7.80
2017-12-15T09:35:35.288Z,7.90
2017-12-15T09:38:02.822Z,7.80
2017-12-15T09:40:30.656Z,7.80
2017-12-15T09:42:58.217Z,7.90
2017-12-15T09:45:25.772Z,7.80
2017-12-15T09:47:53.448Z,7.80
2017-12-15T09:50:20.957Z,7.80
2017-12-15T09:52:48.476Z,7.80
2017-12-15T09:55:16.069Z,7.80
2017-12-15T09:57:43.580Z,7.80
2017-12-15T10:00:11.104Z,7.80
2017-12-15T10:02:38.647Z,7.90
2017-12-15T10:05:06.971Z,8.00
2017-12-15T10:07:34.533Z,8.00
2017-12-15T10:10:02.088Z,8.10
2017-12-15T10:12:29.644Z,8.10
2017-12-15T10:14:57.268Z,8.10
2017-12-15T10:17:24.790Z,8.10
2017-12-15T10:19:52.549Z,8.10
2017-12-15T10:22:20.120Z,8.20
2017-12-15T10:24:47.714Z,8.20
2017-12-15T10:27:15.253Z,8.30
2017-12-15T10:29:42.848Z,8.20
2017-12-15T10:32:11.124Z,8.30
2017-12-15T10:34:38.683Z,8.20
2017-12-15T10:37:06.215Z,8.30
2017-12-15T10:39:33.764Z,8.30
2017-12-15T10:42:01.274Z,8.20
2017-12-15T10:44:28.788Z,8.20
2017-12-15T10:46:56.377Z,8.30
2017-12-15T10:49:23.912Z,8.40
2017-12-15T10:51:51.460Z,8.40
2017-12-15T10:54:19.015Z,8.40
2017-12-15T10:56:46.560Z,8.40
2017-12-15T10:59:14.176Z,8.30
2017-12-15T11:01:41.840Z,8.30
2017-12-15T11:04:09.376Z,8.40
2017-12-15T11:06:36.966Z,8.30
2017-12-15T11:09:04.826Z,8.40
2017-12-15T11:11:32.356Z,8.50
2017-12-15T11:14:00.720Z,8.50
2017-12-15T11:16:28.244Z,8.50
2017-12-15T11:18:56.020Z,8.60
2017-12-15T11:21:23.590Z,8.60
2017-12-15T11:23:51.150Z,8.60
2017-12-15T11:26:18.732Z,8.60
2017-12-15T11:28:46.357Z,8.60
2017-12-15T11:31:13.895Z,8.60
2017-12-15T11:33:41.461Z,8.70
2017-12-15T11:36:08.988Z,8.70
2017-12-15T11:38:36.524Z,8.80
2017-12-15T11:41:04.129Z,8.80
2017-12-15T11:43:31.696Z,8.80
2017-12-15T11:45:59.225Z,8.80
2017-12-15T11:48:26.786Z,8.70
2017-12-15T11:50:54.324Z,8.70
2017-12-15T11:53:21.924Z,8.80
2017-12-15T11:55:50.252Z,8.80
2017-12-15T11:58:17.826Z,8.80
2017-12-15T12:00:45.368Z,8.90
2017-12-15T12:03:12.933Z,8.90
2017-12-15T12:05:40.516Z,8.90
2017-12-15T12:08:08.071Z,9.00
2017-12-15T12:10:35.672Z,9.00
2017-12-15T12:13:03.219Z,9.00
2017-12-15T12:15:30.733Z,9.00
2017-12-15T12:17:58.281Z,9.00
2017-12-15T12:20:25.806Z,9.00
2017-12-15T12:22:54.112Z,9.00
2017-12-15T12:25:21.664Z,9.00
2017-12-15T12:27:49.252Z,9.00
2017-12-15T12:30:16.810Z,9.00
2017-12-15T12:32:44.340Z,8.90
2017-12-15T12:35:11.934Z,8.90
2017-12-15T12:37:39.501Z,8.90
2017-12-15T12:40:07.053Z,8.90
2017-12-15T12:42:34.669Z,9.00
2017-12-15T12:45:02.234Z,9.00
2017-12-15T12:47:29.828Z,9.20
2017-12-15T12:49:57.351Z,9.20
2017-12-15T12:52:25.543Z,9.10
2017-12-15T12:54:53.067Z,9.20
2017-12-15T12:57:20.645Z,9.10
2017-12-15T12:59:48.339Z,9.10
2017-12-15T13:02:15.866Z,9.10
2017-12-15T13:04:43.500Z,9.10
2017-12-15T13:07:11.204Z,9.10
2017-12-15T13:09:38.753Z,9.20
2017-12-15T13:12:06.318Z,9.20
2017-12-15T13:14:33.954Z,9.20
2017-12-15T13:17:01.500Z,9.20
2017-12-15T13:19:29.108Z,9.20
2017-12-15T13:21:56.664Z,9.20
2017-12-15T13:24:24.325Z,9.10
2017-12-15T13:26:51.949Z,9.20
2017-12-15T13:29:19.474Z,9.20
2017-12-15T13:31:47.057Z,9.20
2017-12-15T13:34:15.392Z,9.10
2017-12-15T13:36:42.913Z,9.10
2017-12-15T13:39:10.478Z,9.10
2017-12-15T13:41:38.760Z,9.00
2017-12-15T13:44:06.350Z,9.00
2017-12-15T13:46:33.899Z,8.70
2017-12-15T13:49:01.430Z,8.60
2017-12-15T13:51:28.966Z,8.30
2017-12-15T13:53:56.490Z,8.10
2017-12-15T13:56:24.053Z,8.00
2017-12-15T13:58:51.570Z,8.00
2017-12-15T14:01:19.111Z,7.90
2017-12-15T14:03:46.721Z,7.90
2017-12-15T14:06:14.245Z,7.80
2017-12-15T14:08:41.798Z,8.80
2017-12-15T14:11:09.362Z,7.80
2017-12-15T14:13:37.784Z,7.90
2017-12-15T14:16:05.556Z,7.80
2017-12-15T14:18:33.081Z,7.90
2017-12-15T14:21:00.682Z,7.90
2017-12-15T14:23:28.516Z,7.90
2017-12-15T14:25:56.052Z,8.00
2017-12-15T14:28:23.649Z,7.90
2017-12-15T14:30:51.173Z,7.90
2017-12-15T14:33:19.631Z,8.10
2017-12-15T14:35:47.163Z,8.00
2017-12-15T14:38:14.688Z,8.10
2017-12-15T14:40:42.232Z,8.20
2017-12-15T14:43:10.528Z,8.20
2017-12-15T14:45:38.068Z,8.20
2017-12-15T14:48:06.384Z,8.30
2017-12-15T14:50:33.928Z,8.20
2017-12-15T14:53:01.458Z,8.20
2017-12-15T14:55:29.106Z,8.20
2017-12-15T14:57:56.664Z,8.20
2017-12-15T15:00:24.221Z,8.20
2017-12-15T15:02:53.284Z,8.30
2017-12-15T15:05:20.843Z,8.40
2017-12-15T15:07:48.389Z,8.40
2017-12-15T15:10:15.935Z,8.40
2017-12-15T15:12:43.470Z,8.40
2017-12-15T15:15:11.839Z,8.30
2017-12-15T15:17:39.381Z,8.30
2017-12-15T15:20:06.959Z,8.30
2017-12-15T15:22:34.525Z,8.30
2017-12-15T15:25:02.809Z,8.30
2017-12-15T15:27:30.373Z,8.30
2017-12-15T15:29:57.947Z,8.20
2017-12-15T15:32:25.529Z,8.30
2017-12-15T15:34:53.051Z,8.30
2017-12-15T15:37:21.384Z,8.10
2017-12-15T15:39:48.914Z,8.10
2017-12-15T15:42:16.434Z,8.10
2017-12-15T15:44:43.981Z,8.00
2017-12-15T15:47:11.513Z,7.90
2017-12-15T15:49:39.079Z,7.90
2017-12-15T15:52:06.603Z,8.00
2017-12-15T15:54:34.180Z,8.00
2017-12-15T15:57:01.747Z,8.00
2017-12-15T15:59:29.318Z,8.00
2017-12-15T16:01:56.828Z,8.00
2017-12-15T16:04:24.414Z,7.90
2017-12-15T16:06:51.962Z,7.90
2017-12-15T16:09:19.575Z,7.80
2017-12-15T16:11:47.142Z,7.80
2017-12-15T16:14:14.756Z,7.80
2017-12-15T16:16:42.305Z,7.90
2017-12-15T16:19:09.936Z,7.80
2017-12-15T16:21:37.773Z,7.80
2017-12-15T16:24:06.095Z,7.80
2017-12-15T16:26:33.660Z,7.80
2017-12-15T16:29:01.171Z,7.70
2017-12-15T16:31:28.778Z,7.70
2017-12-15T16:33:56.305Z,7.70
2017-12-15T16:36:23.872Z,7.70
2017-12-15T16:38:51.435Z,7.70
2017-12-15T16:41:18.989Z,7.80
2017-12-15T16:43:46.608Z,7.70
2017-12-15T16:46:14.263Z,7.70
2017-12-15T16:48:41.814Z,7.60
2017-12-15T16:51:09.413Z,7.50
2017-12-15T16:53:36.924Z,7.50
2017-12-15T16:56:04.448Z,7.50
2017-12-15T16:58:32.069Z,7.40
2017-12-15T17:00:59.612Z,7.50
2017-12-15T17:03:27.189Z,7.40
2017-12-15T17:05:54.757Z,7.40
2017-12-15T17:08:22.312Z,7.30
2017-12-15T17:10:49.885Z,7.30
2017-12-15T17:13:17.427Z,7.40
2017-12-15T17:15:44.977Z,7.30
2017-12-15T17:18:12.534Z,7.20
2017-12-15T17:20:40.139Z,7.20
2017-12-15T17:23:07.669Z,7.20
2017-12-15T17:25:35.231Z,7.10
2017-12-15T17:28:02.789Z,7.10
2017-12-15T17:30:30.355Z,7.20
2017-12-15T17:32:57.898Z,7.20
2017-12-15T17:35:25.467Z,7.10
2017-12-15T17:37:53.032Z,6.90
2017-12-15T17:40:20.568Z,6.90
2017-12-15T17:42:48.142Z,7.10
2017-12-15T17:45:15.829Z,7.00
2017-12-15T17:47:43.387Z,6.90
2017-12-15T17:50:10.975Z,6.90
2017-12-15T17:52:38.526Z,6.90
2017-12-15T17:55:06.051Z,6.80
2017-12-15T17:57:33.717Z,6.80
2017-12-15T18:00:01.273Z,6.70
2017-12-15T18:02:28.805Z,6.70
2017-12-15T18:04:56.379Z,6.80
2017-12-15T18:07:23.906Z,6.80
2017-12-15T18:09:51.470Z,6.70
2017-12-15T18:12:19.793Z,6.70
2017-12-15T18:14:47.390Z,6.70
2017-12-15T18:17:14.964Z,6.70
2017-12-15T18:19:42.517Z,6.60
2017-12-15T18:22:10.843Z,6.40
2017-12-15T18:24:38.394Z,6.40
2017-12-15T18:27:05.948Z,6.40
2017-12-15T18:29:33.502Z,6.50
2017-12-15T18:32:01.356Z,6.60
2017-12-15T18:34:28.875Z,6.60
2017-12-15T18:36:56.447Z,6.60
2017-12-15T18:39:24.060Z,6.50
2017-12-15T18:41:51.637Z,6.40
2017-12-15T18:44:19.204Z,6.40
2017-12-15T18:46:46.720Z,6.30
2017-12-15T18:49:14.282Z,6.40
2017-12-15T18:51:41.873Z,6.40
2017-12-15T18:54:09.392Z,6.40
2017-12-15T18:56:36.963Z,6.30
2017-12-15T18:59:04.496Z,6.40
2017-12-15T19:01:32.105Z,6.50
2017-12-15T19:03:59.744Z,6.60
2017-12-15T19:06:27.304Z,6.50
2017-12-15T19:08:54.854Z,6.50
2017-12-15T19:11:22.395Z,6.60
2017-12-15T19:13:49.944Z,6.50
2017-12-15T19:16:17.490Z,6.50
2017-12-15T19:18:45.044Z,6.60
2017-12-15T19:21:12.623Z,6.70
2017-12-15T19:23:40.919Z,6.60
2017-12-15T19:26:08.492Z,6.60
2017-12-15T19:28:36.065Z,6.60
2017-12-15T19:31:03.624Z,6.60
2017-12-15T19:33:31.132Z,6.70
2017-12-15T19:35:58.645Z,6.70
2017-12-15T19:38:26.263Z,6.70
2017-12-15T19:40:53.904Z,6.80
2017-12-15T19:43:21.484Z,6.70
2017-12-15T19:45:49.020Z,6.50
2017-12-15T19:48:16.588Z,6.60
2017-12-15T19:50:44.113Z,6.70
2017-12-15T19:53:11.778Z,6.70
2017-12-15T19:55:39.331Z,6.70
2017-12-15T19:58:06.949Z,6.70
2017-12-15T20:00:35.268Z,6.70
2017-12-15T20:03:02.784Z,6.70
2017-12-15T20:05:30.420Z,6.80
2017-12-15T20:07:57.972Z,6.70
2017-12-15T20:10:25.489Z,6.80
2017-12-15T20:12:53.041Z,6.70
2017-12-15T20:15:20.591Z,6.80
2017-12-15T20:17:48.118Z,6.70
2017-12-15T20:20:15.787Z,6.80
2017-12-15T20:22:43.403Z,6.80
2017-12-15T20:25:11.004Z,6.80
2017-12-15T20:27:38.548Z,6.80
2017-12-15T20:30:06.147Z,6.70
2017-12-15T20:32:34.517Z,6.80
2017-12-15T20:35:02.159Z,6.80
2017-12-15T20:37:30.230Z,6.80
2017-12-15T20:39:57.839Z,6.80
2017-12-15T20:42:26.161Z,6.80
2017-12-15T20:44:53.712Z,6.80
2017-12-15T20:47:21.243Z,6.80
2017-12-15T20:49:48.852Z,6.80
2017-12-15T20:52:16.423Z,6.90
2017-12-15T20:54:43.977Z,6.80
2017-12-15T20:57:11.737Z,6.90
2017-12-15T20:59:39.697Z,6.80
2017-12-15T21:02:07.488Z,6.60
2017-12-15T21:04:35.104Z,6.70
2017-12-15T21:07:02.666Z,6.80
2017-12-15T21:09:30.264Z,6.80
2017-12-15T21:11:57.819Z,6.80
2017-12-15T21:14:25.416Z,6.60
2017-12-15T21:16:52.937Z,6.60
2017-12-15T21:19:20.489Z,6.60
2017-12-15T21:21:48.097Z,6.60
2017-12-15T21:24:15.709Z,6.60
2017-12-15T21:26:43.283Z,6.70
2017-12-15T21:29:10.853Z,6.70
2017-12-15T21:31:38.557Z,6.70
2017-12-15T21:34:06.073Z,6.70
2017-12-15T21:36:33.599Z,6.70
2017-12-15T21:39:01.129Z,6.60
2017-12-15T21:41:28.736Z,6.60
2017-12-15T21:43:56.353Z,6.60
2017-12-15T21:46:24.891Z,6.60
2017-12-15T21:48:52.412Z,6.60
2017-12-15T21:51:20.007Z,6.60
2017-12-15T21:53:47.612Z,6.50
2017-12-15T21:56:15.203Z,6.50
2017-12-15T21:58:42.814Z,6.60
2017-12-15T22:01:11.131Z,6.60
2017-12-15T22:03:38.657Z,6.50
2017-12-15T22:06:06.974Z,6.60
2017-12-15T22:08:34.621Z,6.60
2017-12-15T22:11:02.177Z,6.50
2017-12-15T22:13:29.770Z,6.40
2017-12-15T22:15:57.377Z,6.50
2017-12-15T22:18:25.774Z,6.40
2017-12-15T22:20:53.345Z,6.40
2017-12-15T22:23:20.922Z,6.30
2017-12-15T22:25:48.514Z,6.30
2017-12-15T22:28:16.088Z,6.30
2017-12-15T22:30:43.644Z,6.30
2017-12-15T22:33:11.200Z,6.30
2017-12-15T22:35:39.550Z,6.20
2017-12-15T22:38:07.120Z,6.20
2017-12-15T22:40:34.714Z,6.30
2017-12-15T22:43:02.310Z,6.30
2017-12-15T22:45:29.873Z,6.20
2017-12-15T22:47:57.439Z,6.30
2017-12-15T22:50:24.992Z,6.40
2017-12-15T22:52:52.604Z,6.50
2017-12-15T22:55:20.125Z,6.40
2017-12-15T22:57:47.679Z,6.40
2017-12-15T23:00:15.192Z,6.40
2017-12-15T23:02:42.736Z,6.40
2017-12-15T23:05:10.276Z,6.50
2017-12-15T23:07:37.788Z,6.60
2017-12-15T23:10:05.331Z,6.60
2017-12-15T23:12:32.842Z,6.50
2017-12-15T23:15:01.161Z,6.50
2017-12-15T23:17:28.709Z,6.60
2017-12-15T23:19:56.273Z,6.60
2017-12-15T23:22:24.581Z,6.60
2017-12-15T23:24:52.140Z,6.60
2017-12-15T23:27:19.703Z,6.60
2017-12-15T23:29:47.297Z,6.50
2017-12-15T23:32:14.846Z,6.40
2017-12-15T23:34:42.498Z,6.50
2017-12-15T23:37:10.064Z,6.50
2017-12-15T23:39:37.608Z,6.50
2017-12-15T23:42:05.197Z,6.50
2017-12-15T23:44:32.747Z,6.50
2017-12-15T23:47:00.264Z,6.50
2017-12-15T23:49:27.814Z,6.50
2017-12-15T23:51:55.350Z,6.50
2017-12-15T23:54:34.930Z,6.60
2017-12-15T23:57:02.560Z,6.50
2017-12-15T23:59:30.197Z,6.40
